Terminal Aerodrome Forecast
Issued by NWS

Home | Current Version | Previous Version | Graphics & Text | Print | Product List | Glossary Off
Versions: 1 2 3 4 5 6 7 8 9 10 11 12 13 14 15 16 17 18 19 20 21 22 23 24 25 26 27

000
FTUS43 KBIS 291311 AAA
TAFJMS
TAF AMD
KJMS 291311Z 2913/3012 25003KT 5SM BR BKN060
     FM291600 18004KT P6SM SCT200
     FM300900 17009KT P6SM SCT200=

USA.gov is the U.S. government's official web portal to all federal, state and local government web resources and services.